sensor_id;sensor_type;location;lat;lon;timestamp;P1;durP1;ratioP1;P2;durP2;ratioP2
7289;SDS011;63176;52.678;13.250;2023-05-14T00:01:32;10.45;;;8.75;;
7289;SDS011;63176;52.678;13.250;2023-05-14T00:03:58;12.20;;;9.30;;
7289;SDS011;63176;52.678;13.250;2023-05-14T00:06:23;10.67;;;8.90;;
7289;SDS011;63176;52.678;13.250;2023-05-14T00:08:51;12.50;;;9.40;;
7289;SDS011;63176;52.678;13.250;2023-05-14T00:11:17;10.82;;;9.05;;
7289;SDS011;63176;52.678;13.250;2023-05-14T00:13:42;8.63;;;7.73;;
7289;SDS011;63176;52.678;13.250;2023-05-14T00:16:08;10.13;;;8.20;;
7289;SDS011;63176;52.678;13.250;2023-05-14T00:18:34;17.03;;;9.20;;
7289;SDS011;63176;52.678;13.250;2023-05-14T00:20:59;11.27;;;8.47;;
7289;SDS011;63176;52.678;13.250;2023-05-14T00:23:25;12.07;;;9.33;;
7289;SDS011;63176;52.678;13.250;2023-05-14T00:25:50;11.83;;;9.43;;
7289;SDS011;63176;52.678;13.250;2023-05-14T00:28:16;10.83;;;8.60;;
7289;SDS011;63176;52.678;13.250;2023-05-14T00:30:43;11.90;;;9.73;;
7289;SDS011;63176;52.678;13.250;2023-05-14T00:33:09;12.18;;;9.52;;
7289;SDS011;63176;52.678;13.250;2023-05-14T00:35:34;13.27;;;9.30;;
7289;SDS011;63176;52.678;13.250;2023-05-14T00:38:00;10.57;;;8.40;;
7289;SDS011;63176;52.678;13.250;2023-05-14T00:40:27;13.75;;;10.05;;
7289;SDS011;63176;52.678;13.250;2023-05-14T00:42:53;12.43;;;9.47;;
7289;SDS011;63176;52.678;13.250;2023-05-14T00:45:19;9.90;;;8.70;;
7289;SDS011;63176;52.678;13.250;2023-05-14T00:47:45;11.40;;;9.40;;
7289;SDS011;63176;52.678;13.250;2023-05-14T00:50:11;9.60;;;8.60;;
7289;SDS011;63176;52.678;13.250;2023-05-14T00:52:38;12.20;;;9.38;;
7289;SDS011;63176;52.678;13.250;2023-05-14T00:55:05;13.40;;;9.52;;
7289;SDS011;63176;52.678;13.250;2023-05-14T00:57:32;10.45;;;9.02;;
7289;SDS011;63176;52.678;13.250;2023-05-14T01:00:02;14.65;;;9.93;;
7289;SDS011;63176;52.678;13.250;2023-05-14T01:02:28;10.70;;;9.60;;
7289;SDS011;63176;52.678;13.250;2023-05-14T01:04:54;12.97;;;9.27;;
7289;SDS011;63176;52.678;13.250;2023-05-14T01:07:24;13.88;;;10.32;;
7289;SDS011;63176;52.678;13.250;2023-05-14T01:10:01;15.63;;;9.50;;
7289;SDS011;63176;52.678;13.250;2023-05-14T01:12:33;14.57;;;9.98;;
7289;SDS011;63176;52.678;13.250;2023-05-14T01:15:20;14.57;;;9.50;;
7289;SDS011;63176;52.678;13.250;2023-05-14T01:17:52;12.35;;;9.38;;
7289;SDS011;63176;52.678;13.250;2023-05-14T01:20:20;12.93;;;10.23;;
7289;SDS011;63176;52.678;13.250;2023-05-14T01:22:46;16.38;;;9.20;;
7289;SDS011;63176;52.678;13.250;2023-05-14T01:25:11;13.73;;;9.43;;
7289;SDS011;63176;52.678;13.250;2023-05-14T01:27:40;13.10;;;10.10;;
7289;SDS011;63176;52.678;13.250;2023-05-14T01:33:02;9.68;;;8.43;;
7289;SDS011;63176;52.678;13.250;2023-05-14T01:35:33;13.95;;;8.77;;
7289;SDS011;63176;52.678;13.250;2023-05-14T01:38:00;10.83;;;8.90;;
7289;SDS011;63176;52.678;13.250;2023-05-14T01:40:27;18.75;;;8.02;;
7289;SDS011;63176;52.678;13.250;2023-05-14T01:42:55;9.98;;;8.10;;
7289;SDS011;63176;52.678;13.250;2023-05-14T01:45:22;10.27;;;8.00;;
7289;SDS011;63176;52.678;13.250;2023-05-14T01:47:48;11.77;;;8.05;;
7289;SDS011;63176;52.678;13.250;2023-05-14T01:50:14;12.55;;;8.65;;
7289;SDS011;63176;52.678;13.250;2023-05-14T01:52:40;11.67;;;7.87;;
7289;SDS011;63176;52.678;13.250;2023-05-14T01:55:06;10.10;;;8.00;;
7289;SDS011;63176;52.678;13.250;2023-05-14T01:57:32;12.80;;;8.85;;
7289;SDS011;63176;52.678;13.250;2023-05-14T01:59:58;11.10;;;8.40;;
7289;SDS011;63176;52.678;13.250;2023-05-14T02:02:23;10.90;;;7.67;;
7289;SDS011;63176;52.678;13.250;2023-05-14T02:04:50;10.10;;;7.37;;
7289;SDS011;63176;52.678;13.250;2023-05-14T02:07:16;12.80;;;8.05;;
7289;SDS011;63176;52.678;13.250;2023-05-14T02:09:42;10.03;;;7.70;;
7289;SDS011;63176;52.678;13.250;2023-05-14T02:12:07;9.50;;;7.30;;
7289;SDS011;63176;52.678;13.250;2023-05-14T02:14:33;8.67;;;7.03;;
7289;SDS011;63176;52.678;13.250;2023-05-14T02:19:41;11.35;;;7.80;;
7289;SDS011;63176;52.678;13.250;2023-05-14T02:22:07;8.73;;;6.93;;
7289;SDS011;63176;52.678;13.250;2023-05-14T02:24:33;8.63;;;7.73;;
7289;SDS011;63176;52.678;13.250;2023-05-14T02:26:58;10.80;;;7.20;;
7289;SDS011;63176;52.678;13.250;2023-05-14T02:29:25;11.32;;;8.40;;
7289;SDS011;63176;52.678;13.250;2023-05-14T02:31:51;10.88;;;7.65;;
7289;SDS011;63176;52.678;13.250;2023-05-14T02:34:16;8.47;;;6.70;;
7289;SDS011;63176;52.678;13.250;2023-05-14T02:36:42;8.37;;;7.53;;
7289;SDS011;63176;52.678;13.250;2023-05-14T02:39:08;9.13;;;7.00;;
7289;SDS011;63176;52.678;13.250;2023-05-14T02:41:33;7.87;;;7.07;;
7289;SDS011;63176;52.678;13.250;2023-05-14T02:43:59;9.33;;;7.30;;
7289;SDS011;63176;52.678;13.250;2023-05-14T02:46:25;10.50;;;8.10;;
7289;SDS011;63176;52.678;13.250;2023-05-14T02:48:50;11.00;;;8.50;;
7289;SDS011;63176;52.678;13.250;2023-05-14T02:51:18;10.43;;;7.60;;
7289;SDS011;63176;52.678;13.250;2023-05-14T02:53:45;10.13;;;7.63;;
7289;SDS011;63176;52.678;13.250;2023-05-14T02:56:10;10.80;;;8.80;;
7289;SDS011;63176;52.678;13.250;2023-05-14T02:58:36;9.70;;;8.13;;
7289;SDS011;63176;52.678;13.250;2023-05-14T03:01:02;8.53;;;7.47;;
7289;SDS011;63176;52.678;13.250;2023-05-14T03:03:28;8.90;;;7.77;;
7289;SDS011;63176;52.678;13.250;2023-05-14T03:05:54;11.13;;;8.85;;
7289;SDS011;63176;52.678;13.250;2023-05-14T03:08:20;11.30;;;7.80;;
7289;SDS011;63176;52.678;13.250;2023-05-14T03:10:45;9.80;;;7.23;;
7289;SDS011;63176;52.678;13.250;2023-05-14T03:13:11;10.63;;;8.03;;
7289;SDS011;63176;52.678;13.250;2023-05-14T03:15:37;8.93;;;7.10;;
7289;SDS011;63176;52.678;13.250;2023-05-14T03:18:02;10.27;;;7.73;;
7289;SDS011;63176;52.678;13.250;2023-05-14T03:20:28;11.90;;;7.03;;
7289;SDS011;63176;52.678;13.250;2023-05-14T03:22:53;8.33;;;7.27;;
7289;SDS011;63176;52.678;13.250;2023-05-14T03:25:20;13.38;;;8.60;;
7289;SDS011;63176;52.678;13.250;2023-05-14T03:27:45;9.80;;;7.90;;
7289;SDS011;63176;52.678;13.250;2023-05-14T03:30:11;10.97;;;8.13;;
7289;SDS011;63176;52.678;13.250;2023-05-14T03:32:37;11.10;;;8.07;;
7289;SDS011;63176;52.678;13.250;2023-05-14T03:35:03;9.10;;;7.13;;
7289;SDS011;63176;52.678;13.250;2023-05-14T03:37:29;9.57;;;7.30;;
7289;SDS011;63176;52.678;13.250;2023-05-14T03:39:55;13.43;;;7.70;;
7289;SDS011;63176;52.678;13.250;2023-05-14T03:42:20;9.13;;;7.77;;
7289;SDS011;63176;52.678;13.250;2023-05-14T03:44:46;8.60;;;7.60;;
7289;SDS011;63176;52.678;13.250;2023-05-14T03:47:11;9.97;;;8.17;;
7289;SDS011;63176;52.678;13.250;2023-05-14T03:49:37;10.80;;;7.83;;
7289;SDS011;63176;52.678;13.250;2023-05-14T03:52:03;10.83;;;8.40;;
7289;SDS011;63176;52.678;13.250;2023-05-14T03:54:28;9.47;;;7.53;;
7289;SDS011;63176;52.678;13.250;2023-05-14T03:56:54;10.50;;;7.60;;
7289;SDS011;63176;52.678;13.250;2023-05-14T03:59:20;10.60;;;8.27;;
7289;SDS011;63176;52.678;13.250;2023-05-14T04:01:45;10.17;;;8.33;;
7289;SDS011;63176;52.678;13.250;2023-05-14T04:04:11;9.77;;;7.83;;
7289;SDS011;63176;52.678;13.250;2023-05-14T04:06:36;9.77;;;8.30;;
7289;SDS011;63176;52.678;13.250;2023-05-14T04:09:02;10.87;;;7.20;;
7289;SDS011;63176;52.678;13.250;2023-05-14T04:11:28;10.23;;;8.00;;
7289;SDS011;63176;52.678;13.250;2023-05-14T04:13:53;10.33;;;8.20;;
7289;SDS011;63176;52.678;13.250;2023-05-14T04:16:19;11.20;;;7.60;;
7289;SDS011;63176;52.678;13.250;2023-05-14T04:18:45;11.53;;;7.87;;
7289;SDS011;63176;52.678;13.250;2023-05-14T04:21:11;10.23;;;7.97;;
7289;SDS011;63176;52.678;13.250;2023-05-14T04:23:36;12.60;;;7.80;;
7289;SDS011;63176;52.678;13.250;2023-05-14T04:26:02;9.83;;;7.40;;
7289;SDS011;63176;52.678;13.250;2023-05-14T04:28:28;9.80;;;7.85;;
7289;SDS011;63176;52.678;13.250;2023-05-14T04:30:54;11.33;;;7.20;;
7289;SDS011;63176;52.678;13.250;2023-05-14T04:33:20;8.90;;;7.30;;
7289;SDS011;63176;52.678;13.250;2023-05-14T04:35:46;8.90;;;7.27;;
7289;SDS011;63176;52.678;13.250;2023-05-14T04:38:11;12.33;;;8.00;;
7289;SDS011;63176;52.678;13.250;2023-05-14T04:40:38;13.93;;;7.72;;
7289;SDS011;63176;52.678;13.250;2023-05-14T04:43:05;9.88;;;7.30;;
7289;SDS011;63176;52.678;13.250;2023-05-14T04:45:31;9.88;;;7.00;;
7289;SDS011;63176;52.678;13.250;2023-05-14T04:47:57;12.37;;;8.63;;
7289;SDS011;63176;52.678;13.250;2023-05-14T04:50:23;8.53;;;7.50;;
7289;SDS011;63176;52.678;13.250;2023-05-14T04:52:49;11.90;;;7.33;;
7289;SDS011;63176;52.678;13.250;2023-05-14T04:55:15;8.77;;;7.07;;
7289;SDS011;63176;52.678;13.250;2023-05-14T04:57:41;9.37;;;7.67;;
7289;SDS011;63176;52.678;13.250;2023-05-14T05:00:06;8.20;;;6.67;;
7289;SDS011;63176;52.678;13.250;2023-05-14T05:02:33;7.55;;;6.72;;
7289;SDS011;63176;52.678;13.250;2023-05-14T05:04:59;11.13;;;8.30;;
7289;SDS011;63176;52.678;13.250;2023-05-14T05:07:25;10.13;;;6.80;;
7289;SDS011;63176;52.678;13.250;2023-05-14T05:09:51;8.90;;;7.90;;
7289;SDS011;63176;52.678;13.250;2023-05-14T05:12:16;12.03;;;8.00;;
7289;SDS011;63176;52.678;13.250;2023-05-14T05:14:42;14.90;;;8.00;;
7289;SDS011;63176;52.678;13.250;2023-05-14T05:17:07;12.80;;;7.73;;
7289;SDS011;63176;52.678;13.250;2023-05-14T05:19:33;8.70;;;7.33;;
7289;SDS011;63176;52.678;13.250;2023-05-14T05:21:59;9.57;;;7.57;;
7289;SDS011;63176;52.678;13.250;2023-05-14T05:24:24;8.33;;;7.43;;
7289;SDS011;63176;52.678;13.250;2023-05-14T05:26:50;9.00;;;6.60;;
7289;SDS011;63176;52.678;13.250;2023-05-14T05:29:15;6.60;;;5.80;;
7289;SDS011;63176;52.678;13.250;2023-05-14T05:31:41;6.70;;;5.63;;
7289;SDS011;63176;52.678;13.250;2023-05-14T05:34:07;9.53;;;5.80;;
7289;SDS011;63176;52.678;13.250;2023-05-14T05:36:32;10.20;;;5.57;;
7289;SDS011;63176;52.678;13.250;2023-05-14T05:38:58;5.73;;;5.00;;
7289;SDS011;63176;52.678;13.250;2023-05-14T05:41:24;5.60;;;4.57;;
7289;SDS011;63176;52.678;13.250;2023-05-14T05:43:50;6.70;;;4.53;;
7289;SDS011;63176;52.678;13.250;2023-05-14T05:46:16;4.50;;;4.00;;
7289;SDS011;63176;52.678;13.250;2023-05-14T05:48:43;7.30;;;4.27;;
7289;SDS011;63176;52.678;13.250;2023-05-14T05:51:08;17.30;;;3.90;;
7289;SDS011;63176;52.678;13.250;2023-05-14T05:53:34;5.20;;;3.60;;
7289;SDS011;63176;52.678;13.250;2023-05-14T05:56:00;7.03;;;4.30;;
7289;SDS011;63176;52.678;13.250;2023-05-14T05:58:25;7.60;;;3.77;;
7289;SDS011;63176;52.678;13.250;2023-05-14T06:00:51;4.00;;;3.57;;
7289;SDS011;63176;52.678;13.250;2023-05-14T06:03:17;6.53;;;3.43;;
7289;SDS011;63176;52.678;13.250;2023-05-14T06:05:43;8.00;;;3.90;;
7289;SDS011;63176;52.678;13.250;2023-05-14T06:08:08;10.20;;;3.37;;
7289;SDS011;63176;52.678;13.250;2023-05-14T06:10:34;7.20;;;3.90;;
7289;SDS011;63176;52.678;13.250;2023-05-14T06:13:01;4.20;;;3.80;;
7289;SDS011;63176;52.678;13.250;2023-05-14T06:15:27;4.47;;;4.07;;
7289;SDS011;63176;52.678;13.250;2023-05-14T06:17:52;5.40;;;3.67;;
7289;SDS011;63176;52.678;13.250;2023-05-14T06:20:18;4.00;;;3.53;;
7289;SDS011;63176;52.678;13.250;2023-05-14T06:22:44;7.80;;;3.83;;
7289;SDS011;63176;52.678;13.250;2023-05-14T06:25:09;7.33;;;3.67;;
7289;SDS011;63176;52.678;13.250;2023-05-14T06:27:35;5.60;;;3.60;;
7289;SDS011;63176;52.678;13.250;2023-05-14T06:30:02;4.17;;;3.37;;
7289;SDS011;63176;52.678;13.250;2023-05-14T06:32:28;3.67;;;3.37;;
7289;SDS011;63176;52.678;13.250;2023-05-14T06:34:53;4.43;;;3.40;;
7289;SDS011;63176;52.678;13.250;2023-05-14T06:37:20;4.33;;;3.93;;
7289;SDS011;63176;52.678;13.250;2023-05-14T06:39:45;8.23;;;3.33;;
7289;SDS011;63176;52.678;13.250;2023-05-14T06:42:14;3.97;;;3.60;;
7289;SDS011;63176;52.678;13.250;2023-05-14T06:44:40;4.17;;;3.77;;
7289;SDS011;63176;52.678;13.250;2023-05-14T06:47:06;3.40;;;3.10;;
7289;SDS011;63176;52.678;13.250;2023-05-14T06:49:35;4.20;;;3.80;;
7289;SDS011;63176;52.678;13.250;2023-05-14T06:52:00;5.43;;;3.47;;
7289;SDS011;63176;52.678;13.250;2023-05-14T06:54:27;5.70;;;3.53;;
7289;SDS011;63176;52.678;13.250;2023-05-14T06:56:53;5.63;;;4.10;;
7289;SDS011;63176;52.678;13.250;2023-05-14T06:59:19;4.87;;;3.27;;
7289;SDS011;63176;52.678;13.250;2023-05-14T07:01:44;5.53;;;3.53;;
7289;SDS011;63176;52.678;13.250;2023-05-14T07:04:10;6.67;;;3.83;;
7289;SDS011;63176;52.678;13.250;2023-05-14T07:06:36;5.17;;;3.97;;
7289;SDS011;63176;52.678;13.250;2023-05-14T07:09:01;4.07;;;3.67;;
7289;SDS011;63176;52.678;13.250;2023-05-14T07:11:27;4.10;;;3.77;;
7289;SDS011;63176;52.678;13.250;2023-05-14T07:13:53;4.50;;;3.63;;
7289;SDS011;63176;52.678;13.250;2023-05-14T07:16:19;4.80;;;3.33;;
7289;SDS011;63176;52.678;13.250;2023-05-14T07:18:44;4.43;;;3.60;;
7289;SDS011;63176;52.678;13.250;2023-05-14T07:21:10;5.43;;;3.40;;
7289;SDS011;63176;52.678;13.250;2023-05-14T07:23:36;6.60;;;3.80;;
7289;SDS011;63176;52.678;13.250;2023-05-14T07:26:05;5.00;;;3.40;;
7289;SDS011;63176;52.678;13.250;2023-05-14T07:28:31;4.07;;;3.67;;
7289;SDS011;63176;52.678;13.250;2023-05-14T07:30:57;4.90;;;3.60;;
7289;SDS011;63176;52.678;13.250;2023-05-14T07:33:23;4.47;;;3.40;;
7289;SDS011;63176;52.678;13.250;2023-05-14T07:35:49;5.73;;;3.87;;
7289;SDS011;63176;52.678;13.250;2023-05-14T07:38:15;5.43;;;3.00;;
7289;SDS011;63176;52.678;13.250;2023-05-14T07:40:41;4.77;;;3.43;;
7289;SDS011;63176;52.678;13.250;2023-05-14T07:43:07;4.27;;;3.43;;
7289;SDS011;63176;52.678;13.250;2023-05-14T07:45:35;3.03;;;2.60;;
7289;SDS011;63176;52.678;13.250;2023-05-14T07:48:01;3.87;;;3.00;;
7289;SDS011;63176;52.678;13.250;2023-05-14T07:50:26;3.47;;;3.17;;
7289;SDS011;63176;52.678;13.250;2023-05-14T07:52:52;4.10;;;3.40;;
7289;SDS011;63176;52.678;13.250;2023-05-14T07:55:18;3.63;;;3.33;;
7289;SDS011;63176;52.678;13.250;2023-05-14T07:57:43;3.57;;;3.27;;
7289;SDS011;63176;52.678;13.250;2023-05-14T08:00:10;7.80;;;3.40;;
7289;SDS011;63176;52.678;13.250;2023-05-14T08:02:36;4.67;;;3.37;;
7289;SDS011;63176;52.678;13.250;2023-05-14T08:05:01;3.90;;;3.13;;
7289;SDS011;63176;52.678;13.250;2023-05-14T08:07:28;7.03;;;2.87;;
7289;SDS011;63176;52.678;13.250;2023-05-14T08:09:54;3.57;;;3.27;;
7289;SDS011;63176;52.678;13.250;2023-05-14T08:12:20;5.27;;;3.23;;
7289;SDS011;63176;52.678;13.250;2023-05-14T08:14:46;4.60;;;3.10;;
7289;SDS011;63176;52.678;13.250;2023-05-14T08:17:13;5.70;;;2.73;;
7289;SDS011;63176;52.678;13.250;2023-05-14T08:19:38;4.37;;;2.80;;
7289;SDS011;63176;52.678;13.250;2023-05-14T08:22:04;6.30;;;3.43;;
7289;SDS011;63176;52.678;13.250;2023-05-14T08:24:31;3.50;;;3.20;;
7289;SDS011;63176;52.678;13.250;2023-05-14T08:26:56;3.30;;;3.00;;
7289;SDS011;63176;52.678;13.250;2023-05-14T08:29:22;4.87;;;3.30;;
7289;SDS011;63176;52.678;13.250;2023-05-14T08:31:48;3.47;;;3.17;;
7289;SDS011;63176;52.678;13.250;2023-05-14T08:34:15;5.47;;;3.13;;
7289;SDS011;63176;52.678;13.250;2023-05-14T08:36:41;4.63;;;3.17;;
7289;SDS011;63176;52.678;13.250;2023-05-14T08:39:06;9.43;;;3.10;;
7289;SDS011;63176;52.678;13.250;2023-05-14T08:41:32;3.30;;;3.00;;
7289;SDS011;63176;52.678;13.250;2023-05-14T08:44:17;3.13;;;2.83;;
7289;SDS011;63176;52.678;13.250;2023-05-14T08:46:44;3.40;;;3.03;;
7289;SDS011;63176;52.678;13.250;2023-05-14T08:49:32;3.20;;;2.90;;
7289;SDS011;63176;52.678;13.250;2023-05-14T08:52:09;4.10;;;2.70;;
7289;SDS011;63176;52.678;13.250;2023-05-14T08:54:35;6.77;;;3.50;;
7289;SDS011;63176;52.678;13.250;2023-05-14T08:57:04;3.50;;;3.20;;
7289;SDS011;63176;52.678;13.250;2023-05-14T08:59:30;3.70;;;2.77;;
7289;SDS011;63176;52.678;13.250;2023-05-14T09:01:57;4.77;;;2.80;;
7289;SDS011;63176;52.678;13.250;2023-05-14T09:04:25;6.50;;;3.13;;
7289;SDS011;63176;52.678;13.250;2023-05-14T09:06:52;3.30;;;3.00;;
7289;SDS011;63176;52.678;13.250;2023-05-14T09:09:19;2.87;;;2.57;;
7289;SDS011;63176;52.678;13.250;2023-05-14T09:11:48;3.43;;;2.63;;
7289;SDS011;63176;52.678;13.250;2023-05-14T09:14:14;4.00;;;3.40;;
7289;SDS011;63176;52.678;13.250;2023-05-14T09:16:40;3.20;;;2.90;;
7289;SDS011;63176;52.678;13.250;2023-05-14T09:19:12;4.53;;;2.87;;
7289;SDS011;63176;52.678;13.250;2023-05-14T09:21:38;3.83;;;3.10;;
7289;SDS011;63176;52.678;13.250;2023-05-14T09:24:04;3.17;;;2.83;;
7289;SDS011;63176;52.678;13.250;2023-05-14T09:26:31;3.67;;;3.03;;
7289;SDS011;63176;52.678;13.250;2023-05-14T09:28:58;4.40;;;2.63;;
7289;SDS011;63176;52.678;13.250;2023-05-14T09:31:30;4.07;;;2.97;;
7289;SDS011;63176;52.678;13.250;2023-05-14T09:33:57;5.80;;;2.93;;
7289;SDS011;63176;52.678;13.250;2023-05-14T09:36:24;3.87;;;2.90;;
7289;SDS011;63176;52.678;13.250;2023-05-14T09:38:51;3.43;;;2.60;;
7289;SDS011;63176;52.678;13.250;2023-05-14T09:41:23;3.07;;;2.77;;
7289;SDS011;63176;52.678;13.250;2023-05-14T09:43:51;2.73;;;2.40;;
7289;SDS011;63176;52.678;13.250;2023-05-14T09:46:17;3.03;;;2.63;;
7289;SDS011;63176;52.678;13.250;2023-05-14T09:48:44;2.30;;;2.03;;
7289;SDS011;63176;52.678;13.250;2023-05-14T09:51:10;4.80;;;2.27;;
7289;SDS011;63176;52.678;13.250;2023-05-14T09:53:36;5.07;;;3.10;;
7289;SDS011;63176;52.678;13.250;2023-05-14T09:56:03;3.20;;;2.83;;
7289;SDS011;63176;52.678;13.250;2023-05-14T09:58:29;8.33;;;2.37;;
7289;SDS011;63176;52.678;13.250;2023-05-14T10:00:56;3.57;;;2.43;;
7289;SDS011;63176;52.678;13.250;2023-05-14T10:03:23;3.93;;;2.83;;
7289;SDS011;63176;52.678;13.250;2023-05-14T10:05:50;2.77;;;2.57;;
7289;SDS011;63176;52.678;13.250;2023-05-14T10:08:25;2.77;;;2.57;;
7289;SDS011;63176;52.678;13.250;2023-05-14T10:10:59;2.73;;;2.50;;
7289;SDS011;63176;52.678;13.250;2023-05-14T10:13:29;4.37;;;2.10;;
7289;SDS011;63176;52.678;13.250;2023-05-14T10:16:07;2.60;;;2.40;;
7289;SDS011;63176;52.678;13.250;2023-05-14T10:18:41;4.40;;;2.50;;
7289;SDS011;63176;52.678;13.250;2023-05-14T10:21:12;2.77;;;2.47;;
7289;SDS011;63176;52.678;13.250;2023-05-14T10:23:39;4.33;;;2.13;;
7289;SDS011;63176;52.678;13.250;2023-05-14T10:26:05;2.20;;;2.00;;
7289;SDS011;63176;52.678;13.250;2023-05-14T10:28:32;2.50;;;2.13;;
7289;SDS011;63176;52.678;13.250;2023-05-14T10:30:58;2.60;;;2.40;;
7289;SDS011;63176;52.678;13.250;2023-05-14T10:33:24;3.43;;;2.67;;
7289;SDS011;63176;52.678;13.250;2023-05-14T10:38:35;2.73;;;2.53;;
7289;SDS011;63176;52.678;13.250;2023-05-14T10:43:35;2.40;;;2.20;;
7289;SDS011;63176;52.678;13.250;2023-05-14T10:46:03;3.53;;;2.57;;
7289;SDS011;63176;52.678;13.250;2023-05-14T10:48:29;3.20;;;2.50;;
7289;SDS011;63176;52.678;13.250;2023-05-14T10:50:56;4.00;;;2.50;;
7289;SDS011;63176;52.678;13.250;2023-05-14T10:55:57;2.60;;;2.40;;
7289;SDS011;63176;52.678;13.250;2023-05-14T10:58:44;3.03;;;2.57;;
7289;SDS011;63176;52.678;13.250;2023-05-14T11:01:11;3.37;;;2.20;;
7289;SDS011;63176;52.678;13.250;2023-05-14T11:03:38;5.03;;;3.17;;
7289;SDS011;63176;52.678;13.250;2023-05-14T11:06:06;2.60;;;2.40;;
7289;SDS011;63176;52.678;13.250;2023-05-14T11:08:33;2.60;;;2.30;;
7289;SDS011;63176;52.678;13.250;2023-05-14T11:10:59;3.80;;;2.50;;
7289;SDS011;63176;52.678;13.250;2023-05-14T11:13:25;3.60;;;3.00;;
7289;SDS011;63176;52.678;13.250;2023-05-14T11:15:51;2.57;;;2.40;;
7289;SDS011;63176;52.678;13.250;2023-05-14T11:18:27;4.37;;;2.43;;
7289;SDS011;63176;52.678;13.250;2023-05-14T11:21:00;3.03;;;2.30;;
7289;SDS011;63176;52.678;13.250;2023-05-14T11:23:27;15.20;;;2.87;;
7289;SDS011;63176;52.678;13.250;2023-05-14T11:25:53;5.30;;;2.67;;
7289;SDS011;63176;52.678;13.250;2023-05-14T11:28:20;5.83;;;3.07;;
7289;SDS011;63176;52.678;13.250;2023-05-14T11:30:47;3.57;;;2.50;;
7289;SDS011;63176;52.678;13.250;2023-05-14T11:33:17;4.73;;;2.90;;
7289;SDS011;63176;52.678;13.250;2023-05-14T11:35:43;3.90;;;2.47;;
7289;SDS011;63176;52.678;13.250;2023-05-14T11:38:19;4.60;;;2.90;;
7289;SDS011;63176;52.678;13.250;2023-05-14T11:40:52;2.83;;;2.60;;
7289;SDS011;63176;52.678;13.250;2023-05-14T11:43:21;2.30;;;2.13;;
7289;SDS011;63176;52.678;13.250;2023-05-14T11:45:53;2.73;;;2.53;;
7289;SDS011;63176;52.678;13.250;2023-05-14T11:48:19;3.83;;;3.37;;
7289;SDS011;63176;52.678;13.250;2023-05-14T11:50:46;2.93;;;2.70;;
7289;SDS011;63176;52.678;13.250;2023-05-14T11:53:26;4.50;;;2.80;;
7289;SDS011;63176;52.678;13.250;2023-05-14T11:55:53;2.93;;;2.60;;
7289;SDS011;63176;52.678;13.250;2023-05-14T11:58:21;3.90;;;3.40;;
7289;SDS011;63176;52.678;13.250;2023-05-14T12:00:52;3.13;;;2.90;;
7289;SDS011;63176;52.678;13.250;2023-05-14T12:03:19;5.33;;;3.20;;
7289;SDS011;63176;52.678;13.250;2023-05-14T12:05:55;8.83;;;3.10;;
7289;SDS011;63176;52.678;13.250;2023-05-14T12:08:24;7.03;;;2.53;;
7289;SDS011;63176;52.678;13.250;2023-05-14T12:10:52;4.87;;;2.97;;
7289;SDS011;63176;52.678;13.250;2023-05-14T12:13:18;2.20;;;2.10;;
7289;SDS011;63176;52.678;13.250;2023-05-14T12:15:48;3.80;;;3.40;;
7289;SDS011;63176;52.678;13.250;2023-05-14T12:18:18;2.63;;;2.43;;
7289;SDS011;63176;52.678;13.250;2023-05-14T12:20:47;5.83;;;3.10;;
7289;SDS011;63176;52.678;13.250;2023-05-14T12:23:13;7.30;;;2.77;;
7289;SDS011;63176;52.678;13.250;2023-05-14T12:25:40;3.27;;;2.80;;
7289;SDS011;63176;52.678;13.250;2023-05-14T12:28:14;3.40;;;2.97;;
7289;SDS011;63176;52.678;13.250;2023-05-14T12:30:41;2.60;;;2.40;;
7289;SDS011;63176;52.678;13.250;2023-05-14T12:33:06;3.67;;;2.63;;
7289;SDS011;63176;52.678;13.250;2023-05-14T12:35:32;3.07;;;2.77;;
7289;SDS011;63176;52.678;13.250;2023-05-14T12:37:58;2.77;;;2.23;;
7289;SDS011;63176;52.678;13.250;2023-05-14T12:40:23;4.17;;;3.10;;
7289;SDS011;63176;52.678;13.250;2023-05-14T12:42:49;5.43;;;3.30;;
7289;SDS011;63176;52.678;13.250;2023-05-14T12:45:15;13.23;;;3.00;;
7289;SDS011;63176;52.678;13.250;2023-05-14T12:47:40;5.57;;;2.83;;
7289;SDS011;63176;52.678;13.250;2023-05-14T12:50:06;2.83;;;2.57;;
7289;SDS011;63176;52.678;13.250;2023-05-14T12:52:32;3.23;;;2.80;;
7289;SDS011;63176;52.678;13.250;2023-05-14T12:54:57;3.37;;;3.00;;
7289;SDS011;63176;52.678;13.250;2023-05-14T12:57:23;3.10;;;2.80;;
7289;SDS011;63176;52.678;13.250;2023-05-14T12:59:49;6.90;;;2.87;;
7289;SDS011;63176;52.678;13.250;2023-05-14T13:02:14;3.63;;;3.00;;
7289;SDS011;63176;52.678;13.250;2023-05-14T13:04:41;4.00;;;3.30;;
7289;SDS011;63176;52.678;13.250;2023-05-14T13:07:07;4.97;;;2.93;;
7289;SDS011;63176;52.678;13.250;2023-05-14T13:09:33;3.67;;;2.77;;
7289;SDS011;63176;52.678;13.250;2023-05-14T13:11:58;6.03;;;3.40;;
7289;SDS011;63176;52.678;13.250;2023-05-14T13:14:24;9.73;;;3.00;;
7289;SDS011;63176;52.678;13.250;2023-05-14T13:16:50;9.63;;;3.10;;
7289;SDS011;63176;52.678;13.250;2023-05-14T13:19:15;6.63;;;2.70;;
7289;SDS011;63176;52.678;13.250;2023-05-14T13:21:41;5.20;;;3.30;;
7289;SDS011;63176;52.678;13.250;2023-05-14T13:24:07;2.77;;;2.57;;
7289;SDS011;63176;52.678;13.250;2023-05-14T13:26:34;3.40;;;3.10;;
7289;SDS011;63176;52.678;13.250;2023-05-14T13:29:01;4.13;;;2.60;;
7289;SDS011;63176;52.678;13.250;2023-05-14T13:31:26;4.33;;;3.23;;
7289;SDS011;63176;52.678;13.250;2023-05-14T13:33:52;4.90;;;2.80;;
7289;SDS011;63176;52.678;13.250;2023-05-14T13:36:18;3.57;;;2.80;;
7289;SDS011;63176;52.678;13.250;2023-05-14T13:38:43;3.00;;;2.80;;
7289;SDS011;63176;52.678;13.250;2023-05-14T13:41:10;3.70;;;3.30;;
7289;SDS011;63176;52.678;13.250;2023-05-14T13:43:35;7.70;;;3.20;;
7289;SDS011;63176;52.678;13.250;2023-05-14T13:46:02;2.83;;;2.63;;
7289;SDS011;63176;52.678;13.250;2023-05-14T13:48:29;5.77;;;2.60;;
7289;SDS011;63176;52.678;13.250;2023-05-14T13:50:57;7.37;;;3.27;;
7289;SDS011;63176;52.678;13.250;2023-05-14T13:53:23;3.13;;;2.90;;
7289;SDS011;63176;52.678;13.250;2023-05-14T13:55:49;7.20;;;2.70;;
7289;SDS011;63176;52.678;13.250;2023-05-14T13:58:20;4.83;;;3.03;;
7289;SDS011;63176;52.678;13.250;2023-05-14T14:00:47;9.10;;;3.00;;
7289;SDS011;63176;52.678;13.250;2023-05-14T14:03:13;4.27;;;2.97;;
7289;SDS011;63176;52.678;13.250;2023-05-14T14:05:38;3.57;;;3.23;;
7289;SDS011;63176;52.678;13.250;2023-05-14T14:08:04;8.50;;;2.70;;
7289;SDS011;63176;52.678;13.250;2023-05-14T14:10:30;3.33;;;2.70;;
7289;SDS011;63176;52.678;13.250;2023-05-14T14:12:56;4.73;;;2.70;;
7289;SDS011;63176;52.678;13.250;2023-05-14T14:15:21;5.00;;;3.03;;
7289;SDS011;63176;52.678;13.250;2023-05-14T14:17:47;3.13;;;2.83;;
7289;SDS011;63176;52.678;13.250;2023-05-14T14:20:13;5.33;;;2.80;;
7289;SDS011;63176;52.678;13.250;2023-05-14T14:22:39;3.47;;;2.80;;
7289;SDS011;63176;52.678;13.250;2023-05-14T14:25:07;5.27;;;2.40;;
7289;SDS011;63176;52.678;13.250;2023-05-14T14:27:33;2.67;;;2.47;;
7289;SDS011;63176;52.678;13.250;2023-05-14T14:30:06;3.80;;;2.53;;
7289;SDS011;63176;52.678;13.250;2023-05-14T14:32:33;3.97;;;3.00;;
7289;SDS011;63176;52.678;13.250;2023-05-14T14:34:59;3.90;;;2.60;;
7289;SDS011;63176;52.678;13.250;2023-05-14T14:37:25;3.23;;;2.80;;
7289;SDS011;63176;52.678;13.250;2023-05-14T14:39:51;4.70;;;2.67;;
7289;SDS011;63176;52.678;13.250;2023-05-14T14:42:16;3.87;;;2.77;;
7289;SDS011;63176;52.678;13.250;2023-05-14T14:44:42;5.03;;;3.10;;
7289;SDS011;63176;52.678;13.250;2023-05-14T14:47:07;2.87;;;2.60;;
7289;SDS011;63176;52.678;13.250;2023-05-14T14:49:33;2.93;;;2.70;;
7289;SDS011;63176;52.678;13.250;2023-05-14T14:52:00;2.70;;;2.50;;
7289;SDS011;63176;52.678;13.250;2023-05-14T14:54:26;7.83;;;2.77;;